createdAt,value
2016-11-29T00:00:38.365Z,974.52
2016-11-29T00:01:38.321Z,974.48
2016-11-29T00:02:38.276Z,974.48
2016-11-29T00:03:38.233Z,974.52
2016-11-29T00:04:38.190Z,974.57
2016-11-29T00:05:38.145Z,974.52
2016-11-29T00:06:38.100Z,974.55
2016-11-29T00:07:38.057Z,974.53
2016-11-29T00:08:38.012Z,974.59
2016-11-29T00:09:37.967Z,974.5
2016-11-29T00:10:37.924Z,974.48
2016-11-29T00:11:37.881Z,974.6
2016-11-29T00:12:37.836Z,974.53
2016-11-29T00:13:37.791Z,974.53
2016-11-29T00:14:37.748Z,974.45
2016-11-29T00:15:37.703Z,974.55
2016-11-29T00:16:37.659Z,974.38
2016-11-29T00:17:37.615Z,974.45
2016-11-29T00:18:37.573Z,974.6
2016-11-29T00:19:37.528Z,974.52
2016-11-29T00:20:37.483Z,974.49
2016-11-29T00:21:37.440Z,974.43
2016-11-29T00:22:37.395Z,974.49
2016-11-29T00:23:37.352Z,974.47
2016-11-29T00:24:37.307Z,974.43
2016-11-29T00:25:37.262Z,974.5
2016-11-29T00:26:37.219Z,974.36
2016-11-29T00:27:37.174Z,974.45
2016-11-29T00:28:37.131Z,974.51
2016-11-29T00:29:37.087Z,974.41
2016-11-29T00:30:37.042Z,974.43
2016-11-29T00:31:36.997Z,974.59
2016-11-29T00:32:36.954Z,974.28
2016-11-29T00:33:36.912Z,974.39
2016-11-29T00:34:36.866Z,974.33
2016-11-29T00:35:36.823Z,974.6
2016-11-29T00:36:36.777Z,974.51
2016-11-29T00:37:36.733Z,974.57
2016-11-29T00:38:36.689Z,974.48
2016-11-29T00:39:36.644Z,974.45
2016-11-29T00:40:36.601Z,974.41
2016-11-29T00:41:36.558Z,974.32
2016-11-29T00:42:36.514Z,974.53
2016-11-29T00:43:36.470Z,974.35
2016-11-29T00:44:36.425Z,974.32
2016-11-29T00:45:36.381Z,974.42
2016-11-29T00:46:36.336Z,974.22
2016-11-29T00:47:36.292Z,974.36
2016-11-29T00:48:36.249Z,974.35
2016-11-29T00:49:36.204Z,974.11
2016-11-29T00:50:36.160Z,974.33
2016-11-29T00:51:36.116Z,974.35
2016-11-29T00:52:36.073Z,974.38
2016-11-29T00:53:36.026Z,974.33
2016-11-29T00:54:35.983Z,974.29
2016-11-29T00:55:35.938Z,974.37
2016-11-29T00:56:35.897Z,974.37
2016-11-29T00:57:35.850Z,974.42
2016-11-29T00:58:35.807Z,974.34
2016-11-29T00:59:35.761Z,974.3
2016-11-29T01:00:35.716Z,974.21
2016-11-29T01:01:35.674Z,974.38
2016-11-29T01:02:35.628Z,974.26
2016-11-29T01:03:35.586Z,974.3
2016-11-29T01:04:35.541Z,974.44
2016-11-29T01:05:35.497Z,974.36
2016-11-29T01:06:35.453Z,974.42
2016-11-29T01:07:35.409Z,974.38
2016-11-29T01:08:35.365Z,974.42
2016-11-29T01:09:35.322Z,974.32
2016-11-29T01:10:35.277Z,974.35
2016-11-29T01:11:35.232Z,974.38
2016-11-29T01:12:35.192Z,974.35
2016-11-29T01:13:35.147Z,974.32
2016-11-29T01:14:35.101Z,974.31
2016-11-29T01:15:35.055Z,974.26
2016-11-29T01:16:35.011Z,974.28
2016-11-29T01:17:34.968Z,974.38
2016-11-29T01:18:34.923Z,974.27
2016-11-29T01:19:34.880Z,974.23
2016-11-29T01:20:34.835Z,974.26
2016-11-29T01:21:34.791Z,974.51
2016-11-29T01:22:34.746Z,974.32
2016-11-29T01:23:34.703Z,974.26
2016-11-29T01:24:34.658Z,974.21
2016-11-29T01:25:34.613Z,974.31
2016-11-29T01:26:34.570Z,974.17
2016-11-29T01:27:34.525Z,974.18
2016-11-29T01:28:34.481Z,974.34
2016-11-29T01:29:34.436Z,974.29
2016-11-29T01:30:34.392Z,974.45
2016-11-29T01:31:34.348Z,974.21
2016-11-29T01:32:34.304Z,974.36
2016-11-29T01:33:34.261Z,974.28
2016-11-29T01:34:34.215Z,974.17
2016-11-29T01:35:34.172Z,974.34
2016-11-29T01:36:34.127Z,974.24
2016-11-29T01:37:34.082Z,974.3
2016-11-29T01:38:34.039Z,974.26
2016-11-29T01:39:33.995Z,974.24
2016-11-29T01:40:33.949Z,974.24
2016-11-29T01:41:33.906Z,974.2
2016-11-29T01:42:33.862Z,974.37
2016-11-29T01:43:33.818Z,974.46
2016-11-29T01:44:33.772Z,974.24
2016-11-29T01:45:33.729Z,974.35
2016-11-29T01:46:33.685Z,974.29
2016-11-29T01:47:33.640Z,974.27
2016-11-29T01:48:33.596Z,974.34
2016-11-29T01:49:33.553Z,974.36
2016-11-29T01:50:33.508Z,974.34
2016-11-29T01:51:33.463Z,974.32
2016-11-29T01:52:33.419Z,974.4
2016-11-29T01:53:33.376Z,974.45
2016-11-29T01:54:33.332Z,974.3
2016-11-29T01:55:33.287Z,974.35
2016-11-29T01:56:33.242Z,974.3
2016-11-29T01:57:33.203Z,974.23
2016-11-29T01:58:33.156Z,974.12
2016-11-29T01:59:33.111Z,974.37
2016-11-29T02:00:33.066Z,974.46
2016-11-29T02:01:33.020Z,974.3
2016-11-29T02:02:32.978Z,974.32
2016-11-29T02:03:32.934Z,974.42
2016-11-29T02:04:32.889Z,974.38
2016-11-29T02:05:32.846Z,974.37
2016-11-29T02:06:32.799Z,974.31
2016-11-29T02:07:32.756Z,974.48
2016-11-29T02:08:32.713Z,974.51
2016-11-29T02:09:32.668Z,974.34
2016-11-29T02:10:32.623Z,974.41
2016-11-29T02:11:32.593Z,974.35
2016-11-29T02:12:32.536Z,974.37
2016-11-29T02:13:32.491Z,974.4
2016-11-29T02:14:32.446Z,974.36
2016-11-29T02:15:32.402Z,974.3
2016-11-29T02:16:32.360Z,974.46
2016-11-29T02:17:32.314Z,974.38
2016-11-29T02:18:32.270Z,974.52
2016-11-29T02:19:32.227Z,974.4
2016-11-29T02:20:32.182Z,974.45
2016-11-29T02:21:32.138Z,974.29
2016-11-29T02:22:32.094Z,974.41
2016-11-29T02:23:32.049Z,974.47
2016-11-29T02:24:32.002Z,974.48
2016-11-29T02:25:31.969Z,974.37
2016-11-29T02:26:31.915Z,974.38
2016-11-29T02:27:31.873Z,974.42
2016-11-29T02:28:31.827Z,974.47
2016-11-29T02:29:31.783Z,974.35
2016-11-29T02:30:31.738Z,974.32
2016-11-29T02:31:31.695Z,974.45
2016-11-29T02:32:31.651Z,974.53
2016-11-29T02:33:31.606Z,974.46
2016-11-29T02:34:31.562Z,974.48
2016-11-29T02:35:31.517Z,974.49
2016-11-29T02:36:31.472Z,974.41
2016-11-29T02:37:31.429Z,974.39
2016-11-29T02:38:31.384Z,974.37
2016-11-29T02:39:31.339Z,974.34
2016-11-29T02:40:31.297Z,974.39
2016-11-29T02:41:31.251Z,974.4
2016-11-29T02:42:31.207Z,974.47
2016-11-29T02:43:31.164Z,974.46
2016-11-29T02:44:31.119Z,974.59
2016-11-29T02:45:31.076Z,974.45
2016-11-29T02:46:31.029Z,974.43
2016-11-29T02:47:30.986Z,974.35
2016-11-29T02:48:30.941Z,974.42
2016-11-29T02:49:30.898Z,974.53
2016-11-29T02:50:30.851Z,974.48
2016-11-29T02:51:30.808Z,974.53
2016-11-29T02:52:30.765Z,974.55
2016-11-29T02:53:30.720Z,974.56
2016-11-29T02:54:30.676Z,974.51
2016-11-29T02:55:30.634Z,974.67
2016-11-29T02:56:30.587Z,974.57
2016-11-29T02:57:30.543Z,974.65
2016-11-29T02:58:30.499Z,974.7
2016-11-29T02:59:30.454Z,974.65
2016-11-29T03:00:30.411Z,974.6
2016-11-29T03:01:30.364Z,974.62
2016-11-29T03:02:30.321Z,974.64
2016-11-29T03:03:30.277Z,974.63
2016-11-29T03:04:30.231Z,974.69
2016-11-29T03:05:30.188Z,974.84
2016-11-29T03:06:30.143Z,974.66
2016-11-29T03:07:30.100Z,974.65
2016-11-29T03:08:30.056Z,974.64
2016-11-29T03:09:30.010Z,974.73
2016-11-29T03:10:29.967Z,974.61
2016-11-29T03:11:29.923Z,974.6
2016-11-29T03:12:29.877Z,974.85
2016-11-29T03:13:29.833Z,974.65
2016-11-29T03:14:29.790Z,974.59
2016-11-29T03:15:29.744Z,974.72
2016-11-29T03:16:29.702Z,974.55
2016-11-29T03:17:29.657Z,974.69
2016-11-29T03:18:29.616Z,974.68
2016-11-29T03:19:29.569Z,974.78
2016-11-29T03:20:29.524Z,975
2016-11-29T03:21:29.478Z,974.78
2016-11-29T03:22:29.435Z,974.69
2016-11-29T03:23:29.391Z,974.69
2016-11-29T03:24:29.346Z,974.64
2016-11-29T03:25:29.305Z,974.72
2016-11-29T03:26:29.258Z,974.71
2016-11-29T03:27:29.213Z,974.74
2016-11-29T03:28:29.169Z,974.71
2016-11-29T03:29:29.125Z,974.79
2016-11-29T03:30:29.080Z,974.83
2016-11-29T03:31:29.038Z,974.69
2016-11-29T03:32:28.994Z,974.87
2016-11-29T03:33:28.952Z,974.92
2016-11-29T03:34:28.903Z,974.91
2016-11-29T03:35:28.859Z,974.78
2016-11-29T03:36:28.815Z,974.85
2016-11-29T03:37:28.769Z,974.84
2016-11-29T03:38:28.726Z,974.87
2016-11-29T03:39:28.681Z,974.93
2016-11-29T03:40:28.638Z,974.83
2016-11-29T03:41:28.591Z,974.85
2016-11-29T03:42:28.549Z,974.87
2016-11-29T03:43:28.506Z,974.77
2016-11-29T03:44:28.461Z,974.97
2016-11-29T03:45:28.415Z,974.87
2016-11-29T03:46:28.373Z,974.95
2016-11-29T03:47:28.328Z,974.95
2016-11-29T03:48:28.282Z,974.89
2016-11-29T03:49:28.244Z,974.89
2016-11-29T03:50:28.194Z,974.84
2016-11-29T03:51:28.150Z,974.87
2016-11-29T03:52:28.105Z,974.9
2016-11-29T03:53:28.062Z,974.93
2016-11-29T03:54:28.017Z,974.96
2016-11-29T03:55:27.973Z,974.95
2016-11-29T03:56:27.928Z,974.98
2016-11-29T03:57:27.886Z,974.98
2016-11-29T03:58:27.840Z,975.06
2016-11-29T03:59:27.795Z,975.05
2016-11-29T04:00:27.752Z,975.02
2016-11-29T04:01:27.708Z,975.06
2016-11-29T04:02:27.664Z,975.05
2016-11-29T04:03:27.618Z,975.16
2016-11-29T04:04:27.574Z,975.07
2016-11-29T04:05:27.531Z,975.08
2016-11-29T04:06:27.487Z,975.17
2016-11-29T04:07:27.442Z,975.15
2016-11-29T04:08:27.398Z,975.18
2016-11-29T04:09:27.355Z,975.27
2016-11-29T04:10:27.310Z,975.22
2016-11-29T04:11:27.265Z,975.19
2016-11-29T04:12:27.220Z,975.21
2016-11-29T04:13:27.177Z,975.27
2016-11-29T04:14:27.134Z,975.17
2016-11-29T04:15:27.087Z,975.21
2016-11-29T04:16:27.044Z,975.14
2016-11-29T04:17:27.000Z,975.2
2016-11-29T04:18:26.956Z,975.19
2016-11-29T04:19:26.913Z,975.23
2016-11-29T04:20:26.868Z,975.14
2016-11-29T04:21:26.822Z,975.23
2016-11-29T04:22:26.778Z,975.2
2016-11-29T04:23:26.736Z,975.21
2016-11-29T04:24:26.691Z,975.24
2016-11-29T04:25:26.647Z,975.23
2016-11-29T04:26:26.601Z,975.19
2016-11-29T04:27:26.563Z,975.3
2016-11-29T04:28:26.513Z,975.23
2016-11-29T04:29:26.471Z,975.28
2016-11-29T04:30:26.424Z,975.24
2016-11-29T04:31:26.381Z,975.25
2016-11-29T04:32:26.336Z,975.21
2016-11-29T04:33:26.292Z,975.33
2016-11-29T04:34:26.249Z,975.32
2016-11-29T04:35:26.204Z,975.31
2016-11-29T04:36:26.160Z,975.34
2016-11-29T04:37:26.115Z,975.3
2016-11-29T04:38:26.072Z,975.39
2016-11-29T04:39:26.026Z,975.41
2016-11-29T04:40:25.982Z,975.37
2016-11-29T04:41:25.938Z,975.41
2016-11-29T04:42:25.896Z,975.37
2016-11-29T04:43:25.848Z,975.44
2016-11-29T04:44:25.805Z,975.48
2016-11-29T04:45:25.761Z,975.46
2016-11-29T04:46:25.717Z,975.43
2016-11-29T04:47:25.674Z,975.54
2016-11-29T04:48:25.627Z,975.44
2016-11-29T04:49:25.584Z,975.39
2016-11-29T04:50:25.540Z,975.46
2016-11-29T04:51:25.493Z,975.44
2016-11-29T04:52:25.451Z,975.39
2016-11-29T04:53:25.408Z,975.44
2016-11-29T04:54:25.363Z,975.46
2016-11-29T04:55:25.321Z,975.39
2016-11-29T04:56:25.274Z,975.41
2016-11-29T04:57:25.229Z,975.41
2016-11-29T04:58:25.185Z,975.43
2016-11-29T04:59:25.140Z,975.48
2016-11-29T05:00:25.098Z,975.48
2016-11-29T05:01:25.055Z,975.46
2016-11-29T05:02:25.009Z,975.45
2016-11-29T05:03:24.964Z,975.5
2016-11-29T05:04:24.920Z,975.53
2016-11-29T05:05:24.875Z,975.54
2016-11-29T05:06:24.831Z,975.52
2016-11-29T05:07:24.786Z,975.63
2016-11-29T05:08:24.744Z,975.57
2016-11-29T05:09:24.732Z,975.62
2016-11-29T05:10:24.653Z,975.62
2016-11-29T05:11:24.610Z,975.64
2016-11-29T05:12:24.565Z,975.65
2016-11-29T05:13:24.521Z,975.73
2016-11-29T05:14:24.477Z,975.63
2016-11-29T05:15:24.434Z,975.71
2016-11-29T05:16:24.389Z,975.71
2016-11-29T05:17:24.345Z,975.72
2016-11-29T05:18:24.302Z,975.67
2016-11-29T05:19:24.256Z,975.7
2016-11-29T05:20:24.212Z,975.71
2016-11-29T05:21:24.167Z,975.6
2016-11-29T05:22:24.124Z,975.73
2016-11-29T05:23:24.078Z,975.76
2016-11-29T05:24:24.035Z,975.76
2016-11-29T05:25:23.991Z,975.76
2016-11-29T05:26:23.947Z,975.76
2016-11-29T05:27:23.901Z,975.73
2016-11-29T05:28:23.857Z,975.74
2016-11-29T05:29:23.813Z,975.77
2016-11-29T05:30:23.770Z,975.74
2016-11-29T05:31:23.725Z,975.81
2016-11-29T05:32:23.680Z,975.85
2016-11-29T05:33:23.637Z,975.83
2016-11-29T05:34:23.592Z,975.85
2016-11-29T05:35:23.549Z,975.89
2016-11-29T05:36:23.503Z,975.92
2016-11-29T05:37:23.461Z,975.92
2016-11-29T05:38:23.414Z,975.9
2016-11-29T05:39:23.370Z,975.93
2016-11-29T05:40:23.326Z,975.95
2016-11-29T05:41:23.285Z,975.99
2016-11-29T05:42:23.237Z,975.96
2016-11-29T05:43:23.193Z,975.98
2016-11-29T05:44:23.150Z,976.01
2016-11-29T05:45:23.105Z,975.95
2016-11-29T05:46:23.060Z,975.95
2016-11-29T05:47:23.018Z,976.01
2016-11-29T05:48:22.972Z,976.02
2016-11-29T05:49:22.927Z,976.04
2016-11-29T05:50:22.883Z,975.99
2016-11-29T05:51:22.839Z,976.07
2016-11-29T05:52:22.795Z,976.07
2016-11-29T05:53:22.750Z,976.03
2016-11-29T05:54:22.708Z,976.14
2016-11-29T05:55:22.662Z,976.08
2016-11-29T05:56:22.617Z,976.08
2016-11-29T05:57:22.574Z,976.1
2016-11-29T05:58:22.529Z,976.19
2016-11-29T05:59:22.485Z,976.06
2016-11-29T06:00:22.440Z,976.12
2016-11-29T06:01:22.396Z,976.2
2016-11-29T06:02:22.353Z,976.14
2016-11-29T06:03:22.307Z,976.21
2016-11-29T06:04:22.267Z,976.23
2016-11-29T06:05:22.219Z,976.21
2016-11-29T06:06:22.175Z,976.15
2016-11-29T06:07:22.130Z,976.21
2016-11-29T06:08:22.085Z,976.25
2016-11-29T06:09:22.041Z,976.27
2016-11-29T06:10:21.997Z,976.3
2016-11-29T06:11:21.950Z,976.31
2016-11-29T06:12:21.909Z,976.33
2016-11-29T06:13:21.863Z,976.3
2016-11-29T06:14:21.818Z,976.36
2016-11-29T06:15:21.776Z,976.36
2016-11-29T06:16:21.730Z,976.36
2016-11-29T06:17:21.686Z,976.33
2016-11-29T06:18:21.640Z,976.35
2016-11-29T06:19:21.598Z,976.4
2016-11-29T06:20:21.552Z,976.46
2016-11-29T06:21:21.509Z,976.46
2016-11-29T06:22:21.462Z,976.44
2016-11-29T06:23:21.419Z,976.5
2016-11-29T06:24:21.373Z,976.52
2016-11-29T06:25:21.330Z,976.48
2016-11-29T06:26:21.285Z,976.55
2016-11-29T06:27:21.241Z,976.56
2016-11-29T06:28:21.197Z,976.55
2016-11-29T06:29:21.152Z,976.6
2016-11-29T06:30:21.107Z,976.56
2016-11-29T06:31:21.064Z,976.6
2016-11-29T06:32:21.019Z,976.62
2016-11-29T06:33:20.976Z,976.63
2016-11-29T06:34:20.930Z,976.64
2016-11-29T06:35:20.885Z,976.68
2016-11-29T06:36:20.840Z,976.62
2016-11-29T06:37:20.795Z,976.7
2016-11-29T06:38:20.752Z,976.62
2016-11-29T06:39:20.709Z,976.67
2016-11-29T06:40:20.664Z,976.79
2016-11-29T06:41:20.620Z,976.78
2016-11-29T06:42:20.574Z,976.73
2016-11-29T06:43:20.530Z,976.73
2016-11-29T06:44:20.485Z,976.74
2016-11-29T06:45:20.441Z,976.72
2016-11-29T06:46:20.397Z,976.75
2016-11-29T06:47:20.352Z,976.73
2016-11-29T06:48:20.308Z,976.87
2016-11-29T06:49:20.265Z,976.85
2016-11-29T06:50:20.219Z,976.85
2016-11-29T06:51:20.174Z,976.83
2016-11-29T06:52:20.130Z,976.81
2016-11-29T06:53:20.086Z,976.9
2016-11-29T06:54:20.042Z,976.87
2016-11-29T06:55:19.997Z,976.9
2016-11-29T06:56:20.157Z,976.95
2016-11-29T06:57:19.909Z,976.86
2016-11-29T06:58:19.863Z,976.89
2016-11-29T06:59:19.819Z,976.88
2016-11-29T07:00:19.774Z,976.98
2016-11-29T07:01:19.731Z,976.93
2016-11-29T07:02:19.685Z,976.99
2016-11-29T07:03:19.640Z,977
2016-11-29T07:04:19.597Z,977.02
2016-11-29T07:05:19.554Z,977
2016-11-29T07:06:19.509Z,976.98
2016-11-29T07:07:19.464Z,977.05
2016-11-29T07:08:19.420Z,977.07
2016-11-29T07:09:19.374Z,977.1
2016-11-29T07:10:19.333Z,977.07
2016-11-29T07:11:19.288Z,977.14
2016-11-29T07:12:19.244Z,977.23
2016-11-29T07:13:19.200Z,977.26
2016-11-29T07:14:19.158Z,977.25
2016-11-29T07:15:19.115Z,977.22
2016-11-29T07:16:19.072Z,977.35
2016-11-29T07:17:19.029Z,977.37
2016-11-29T07:18:18.984Z,977.28
2016-11-29T07:19:18.942Z,977.36
2016-11-29T07:20:18.897Z,977.37
2016-11-29T07:21:18.856Z,977.41
2016-11-29T07:22:18.814Z,977.41
2016-11-29T07:23:18.772Z,977.41
2016-11-29T07:24:18.730Z,977.35
2016-11-29T07:25:18.688Z,977.41
2016-11-29T07:26:18.647Z,977.54
2016-11-29T07:27:18.604Z,977.53
2016-11-29T07:28:18.564Z,977.43
2016-11-29T07:29:18.524Z,977.52
2016-11-29T07:30:18.482Z,977.57
2016-11-29T07:31:18.440Z,977.48
2016-11-29T07:32:18.398Z,977.43
2016-11-29T07:33:18.365Z,977.5
2016-11-29T07:34:18.318Z,977.57
2016-11-29T07:35:18.278Z,977.57
2016-11-29T07:36:18.237Z,977.57
2016-11-29T07:37:18.198Z,977.54
2016-11-29T07:38:18.156Z,977.56
2016-11-29T07:39:18.116Z,977.58
2016-11-29T07:40:18.076Z,977.58
2016-11-29T07:41:18.036Z,977.6
2016-11-29T07:42:17.995Z,977.58
2016-11-29T07:43:17.958Z,977.59
2016-11-29T07:44:17.917Z,977.64
2016-11-29T07:45:17.878Z,977.63
2016-11-29T07:46:17.837Z,977.64
2016-11-29T07:47:17.801Z,977.64
2016-11-29T07:48:17.760Z,977.71
2016-11-29T07:49:17.723Z,977.69
2016-11-29T07:50:17.682Z,977.73
2016-11-29T07:51:17.644Z,977.79
2016-11-29T07:52:17.607Z,977.79
2016-11-29T07:53:17.567Z,977.83
2016-11-29T07:54:17.529Z,977.77
2016-11-29T07:55:17.492Z,977.8
2016-11-29T07:56:17.452Z,977.85
2016-11-29T07:57:17.415Z,977.78
2016-11-29T07:58:17.377Z,977.8
2016-11-29T07:59:17.340Z,977.82
2016-11-29T08:00:17.301Z,977.67
2016-11-29T08:01:17.263Z,977.74
2016-11-29T08:02:17.227Z,977.79
2016-11-29T08:03:17.190Z,977.79
2016-11-29T08:04:17.151Z,977.78
2016-11-29T08:05:17.113Z,977.74
2016-11-29T08:06:17.078Z,977.82
2016-11-29T08:07:17.042Z,977.9
2016-11-29T08:08:17.004Z,977.89
2016-11-29T08:09:16.967Z,977.81
2016-11-29T08:10:16.932Z,977.85
2016-11-29T08:11:16.894Z,977.9
2016-11-29T08:12:16.859Z,977.81
2016-11-29T08:13:16.821Z,977.87
2016-11-29T08:14:16.786Z,977.87
2016-11-29T08:15:16.749Z,977.84
2016-11-29T08:16:16.715Z,977.87
2016-11-29T08:17:16.679Z,977.9
2016-11-29T08:18:16.642Z,977.84
2016-11-29T08:19:16.605Z,977.92
2016-11-29T08:20:16.571Z,977.92
2016-11-29T08:21:16.535Z,977.96
2016-11-29T08:22:16.499Z,977.89
2016-11-29T08:23:16.464Z,977.85
2016-11-29T08:24:16.430Z,977.83
2016-11-29T08:25:16.395Z,977.83
2016-11-29T08:26:16.360Z,977.81
2016-11-29T08:27:16.324Z,977.86
2016-11-29T08:28:16.290Z,977.89
2016-11-29T08:29:16.255Z,977.86
2016-11-29T08:30:16.219Z,977.79
2016-11-29T08:31:16.185Z,977.82
2016-11-29T08:32:16.150Z,977.83
2016-11-29T08:33:16.116Z,977.88
2016-11-29T08:34:16.081Z,977.83
2016-11-29T08:35:16.048Z,977.87
2016-11-29T08:36:16.013Z,977.86
2016-11-29T08:37:15.977Z,977.89
2016-11-29T08:38:15.943Z,977.92
2016-11-29T08:39:15.911Z,977.88
2016-11-29T08:40:15.877Z,978.04
2016-11-29T08:41:15.842Z,977.9
2016-11-29T08:42:15.816Z,977.92
2016-11-29T08:43:15.774Z,977.98
2016-11-29T08:44:15.739Z,977.93
2016-11-29T08:45:15.705Z,977.94
2016-11-29T08:46:15.672Z,977.93
2016-11-29T08:47:15.638Z,977.97
2016-11-29T08:48:15.604Z,977.97
2016-11-29T08:49:15.571Z,978.02
2016-11-29T08:50:15.537Z,977.99
2016-11-29T08:51:15.502Z,977.92
2016-11-29T08:52:15.472Z,977.95
2016-11-29T08:53:15.435Z,978.02
2016-11-29T08:54:15.402Z,977.99
2016-11-29T08:55:15.367Z,977.99
2016-11-29T08:56:15.334Z,977.98
2016-11-29T08:57:15.301Z,977.99
2016-11-29T08:58:15.268Z,978.02
2016-11-29T08:59:15.235Z,978.03
2016-11-29T09:00:15.201Z,978.06
2016-11-29T09:01:15.170Z,978.18
2016-11-29T09:02:15.135Z,978.06
2016-11-29T09:03:15.105Z,978.1
2016-11-29T09:04:15.070Z,978.13
2016-11-29T09:05:15.038Z,978.08
2016-11-29T09:06:15.004Z,978.2
2016-11-29T09:07:14.970Z,978.23
2016-11-29T09:08:14.940Z,978.23
2016-11-29T09:09:14.907Z,978.18
2016-11-29T09:10:14.874Z,978.21
2016-11-29T09:11:14.843Z,978.25
2016-11-29T09:12:14.810Z,978.34
2016-11-29T09:13:14.779Z,978.42
2016-11-29T09:14:14.746Z,978.4
2016-11-29T09:15:14.715Z,978.46
2016-11-29T09:16:14.686Z,978.45
2016-11-29T09:17:14.651Z,978.41
2016-11-29T09:18:14.620Z,978.43
2016-11-29T09:19:14.589Z,978.46
2016-11-29T09:20:14.558Z,978.46
2016-11-29T09:21:14.527Z,978.47
2016-11-29T09:22:14.495Z,978.4
2016-11-29T09:23:14.463Z,978.38
2016-11-29T09:24:14.433Z,978.42
2016-11-29T09:25:14.401Z,978.42
2016-11-29T09:26:14.370Z,978.35
2016-11-29T09:27:14.338Z,978.48
2016-11-29T09:28:14.306Z,978.55
2016-11-29T09:29:14.276Z,978.58
2016-11-29T09:30:14.245Z,978.53
2016-11-29T09:31:14.213Z,978.51
2016-11-29T09:32:14.182Z,978.46
2016-11-29T09:33:14.150Z,978.52
2016-11-29T09:34:14.119Z,978.56
2016-11-29T09:35:14.087Z,978.61
2016-11-29T09:36:14.056Z,978.65
2016-11-29T09:37:14.025Z,978.64
2016-11-29T09:38:13.996Z,978.69
2016-11-29T09:39:13.962Z,978.64
2016-11-29T09:40:13.930Z,978.69
2016-11-29T09:41:13.898Z,978.66
2016-11-29T09:42:13.868Z,978.67
2016-11-29T09:43:13.834Z,978.74
2016-11-29T09:44:13.802Z,978.71
2016-11-29T09:45:13.772Z,978.62
2016-11-29T09:46:13.740Z,978.63
2016-11-29T09:47:13.710Z,978.66
2016-11-29T09:48:13.678Z,978.7
2016-11-29T09:49:13.647Z,978.73
2016-11-29T09:50:13.614Z,978.75
2016-11-29T09:51:13.583Z,978.8
2016-11-29T09:52:13.552Z,978.81
2016-11-29T09:53:13.521Z,978.83
2016-11-29T09:54:13.488Z,978.9
2016-11-29T09:55:13.458Z,978.86
2016-11-29T09:56:13.428Z,978.86
2016-11-29T09:57:13.394Z,978.84
2016-11-29T09:58:13.364Z,978.86
2016-11-29T09:59:13.333Z,978.87
2016-11-29T10:00:13.301Z,978.85
2016-11-29T10:01:13.269Z,978.83
2016-11-29T10:02:13.238Z,978.88
2016-11-29T10:03:13.207Z,978.82
2016-11-29T10:04:13.176Z,978.79
2016-11-29T10:05:13.144Z,978.84
2016-11-29T10:06:13.113Z,978.87
2016-11-29T10:07:13.082Z,978.84
2016-11-29T10:08:13.050Z,978.85
2016-11-29T10:09:13.020Z,978.93
2016-11-29T10:10:12.989Z,978.91
2016-11-29T10:11:12.957Z,978.81
2016-11-29T10:12:12.926Z,978.88
2016-11-29T10:13:12.896Z,978.94
2016-11-29T10:14:12.863Z,978.9
2016-11-29T10:15:12.832Z,978.97
2016-11-29T10:16:12.804Z,978.81
2016-11-29T10:17:12.769Z,978.83
2016-11-29T10:18:12.736Z,978.71
2016-11-29T10:19:12.704Z,978.7
2016-11-29T10:20:12.672Z,978.74
2016-11-29T10:21:12.641Z,978.75
2016-11-29T10:22:12.609Z,978.73
2016-11-29T10:23:12.575Z,978.75
2016-11-29T10:24:12.545Z,978.71
2016-11-29T10:25:12.511Z,978.72
2016-11-29T10:26:12.481Z,978.71
2016-11-29T10:27:12.445Z,978.7
2016-11-29T10:28:12.421Z,978.73
2016-11-29T10:29:12.381Z,978.72
2016-11-29T10:30:12.347Z,978.69
2016-11-29T10:31:12.315Z,978.62
2016-11-29T10:32:12.283Z,978.66
2016-11-29T10:33:12.251Z,978.57
2016-11-29T10:34:12.216Z,978.59
2016-11-29T10:35:12.186Z,978.6
2016-11-29T10:36:12.152Z,978.53
2016-11-29T10:37:12.119Z,978.56
2016-11-29T10:38:12.089Z,978.55
2016-11-29T10:39:12.056Z,978.52
2016-11-29T10:40:12.024Z,978.56
2016-11-29T10:41:11.990Z,978.41
2016-11-29T10:42:11.957Z,978.45
2016-11-29T10:43:11.925Z,978.55
2016-11-29T10:44:11.892Z,978.54
2016-11-29T10:45:11.867Z,978.46
2016-11-29T10:46:11.827Z,978.39
2016-11-29T10:47:11.794Z,978.39
2016-11-29T10:48:11.763Z,978.35
2016-11-29T10:49:11.730Z,978.43
2016-11-29T10:50:11.696Z,978.41
2016-11-29T10:51:11.667Z,978.45
2016-11-29T10:52:11.631Z,978.53
2016-11-29T10:53:11.601Z,978.69
2016-11-29T10:54:11.565Z,978.85
2016-11-29T10:55:11.532Z,978.7
2016-11-29T10:56:11.499Z,978.68
2016-11-29T10:57:11.467Z,978.65
2016-11-29T10:58:11.434Z,978.66
2016-11-29T10:59:11.400Z,978.55
2016-11-29T11:00:11.368Z,978.54
2016-11-29T11:01:11.335Z,978.45
2016-11-29T11:02:11.302Z,978.41
2016-11-29T11:03:11.269Z,978.38
2016-11-29T11:04:11.236Z,978.47
2016-11-29T11:05:11.207Z,978.41
2016-11-29T11:06:11.170Z,978.45
2016-11-29T11:07:11.135Z,978.32
2016-11-29T11:08:11.100Z,978.37
2016-11-29T11:09:11.068Z,978.36
2016-11-29T11:10:11.034Z,978.42
2016-11-29T11:11:11.001Z,978.37
2016-11-29T11:12:10.965Z,978.43
2016-11-29T11:13:10.930Z,978.42
2016-11-29T11:14:10.895Z,978.42
2016-11-29T11:15:10.860Z,978.36
2016-11-29T11:16:10.826Z,978.33
2016-11-29T11:17:10.792Z,978.35
2016-11-29T11:18:10.756Z,978.36
2016-11-29T11:19:10.722Z,978.32
2016-11-29T11:20:10.685Z,978.3
2016-11-29T11:21:10.650Z,978.37
2016-11-29T11:22:10.614Z,978.35
2016-11-29T11:23:10.578Z,978.31
2016-11-29T11:24:10.543Z,978.35
2016-11-29T11:25:10.505Z,978.23
2016-11-29T11:26:10.477Z,978.31
2016-11-29T11:27:10.434Z,978.26
2016-11-29T11:28:10.396Z,978.36
2016-11-29T11:29:10.359Z,978.26
2016-11-29T11:30:10.324Z,978.27
2016-11-29T11:31:10.285Z,978.3
2016-11-29T11:32:10.250Z,978.26
2016-11-29T11:33:10.212Z,978.23
2016-11-29T11:34:10.174Z,978.28
2016-11-29T11:35:10.138Z,978.33
2016-11-29T11:36:10.101Z,978.17
2016-11-29T11:37:10.063Z,978.13
2016-11-29T11:38:10.030Z,978.18
2016-11-29T11:39:09.986Z,978.15
2016-11-29T11:40:09.948Z,978.2
2016-11-29T11:41:09.909Z,978.13
2016-11-29T11:42:09.871Z,978.12
2016-11-29T11:43:09.831Z,978.1
2016-11-29T11:44:09.792Z,978.12
2016-11-29T11:45:09.755Z,978.1
2016-11-29T11:46:09.716Z,978.08
2016-11-29T11:47:09.675Z,978.03
2016-11-29T11:48:09.650Z,978.03
2016-11-29T11:49:09.597Z,978.1
2016-11-29T11:50:09.557Z,978.15
2016-11-29T11:51:09.518Z,978.2
2016-11-29T11:52:09.480Z,978.15
2016-11-29T11:53:09.439Z,978.13
2016-11-29T11:54:09.399Z,978.16
2016-11-29T11:55:09.359Z,978.16
2016-11-29T11:56:09.322Z,978.09
2016-11-29T11:57:09.279Z,978.22
2016-11-29T11:58:09.240Z,978.1
2016-11-29T11:59:09.201Z,978.1
2016-11-29T12:00:09.160Z,978.24
2016-11-29T12:01:09.120Z,978.14
2016-11-29T12:02:09.080Z,978.11
2016-11-29T12:03:09.038Z,978.08
2016-11-29T12:04:09.001Z,978.09
2016-11-29T12:05:08.959Z,978.1
2016-11-29T12:06:08.918Z,978.06
2016-11-29T12:07:08.878Z,978.13
2016-11-29T12:08:08.838Z,978.11
2016-11-29T12:09:08.802Z,978.06
2016-11-29T12:10:08.757Z,978.08
2016-11-29T12:11:08.717Z,978.06
2016-11-29T12:12:08.676Z,978.06
2016-11-29T12:13:08.635Z,978.03
2016-11-29T12:14:08.596Z,978.1
2016-11-29T12:15:08.556Z,978.04
2016-11-29T12:16:08.514Z,978.05
2016-11-29T12:17:08.473Z,978.11
2016-11-29T12:18:08.434Z,977.94
2016-11-29T12:19:08.392Z,978.02
2016-11-29T12:20:08.351Z,977.98
2016-11-29T12:21:08.310Z,978.01
2016-11-29T12:22:08.270Z,978.02
2016-11-29T12:23:08.229Z,978.01
2016-11-29T12:24:08.187Z,978.05
2016-11-29T12:25:08.149Z,977.99
2016-11-29T12:26:08.106Z,978.04
2016-11-29T12:27:08.065Z,977.96
2016-11-29T12:28:08.027Z,978.03
2016-11-29T12:29:07.984Z,978.03
2016-11-29T12:30:07.944Z,977.99
2016-11-29T12:31:07.901Z,978.05